aviador You're here:

KSMX Decoded Metar

SANTA MARIA in CA, USA
Report Time2018-07-22 06:51:00
UTC Time2018-07-22 07:03:53
Flight Rules lifr LIFR
Wind290° at 04 kt
W.Decomp.*RWY 30: 3.7 kt HW 1.6 kt LCW
RWY 20: 1.0 kt HW 3.9 kt RCW
W.Rank290° ranks 4
Current wind is below 290° avg. (9.0)
Visibility9999 m
Phenomena:N/A
Clouds:Overcast 002 Hf
Expected CloudBase > 400 ft AGL from Temp-Dew spread
Ceiling200 ft
Temp17°C (ISA +2)
Dew Point16°C (94% RH)
QNH1018 hPa
Density Alt610 ft
Elevation243 ft
Report Wrong Elevation
Raw Report
KSMX 220651Z AUTO 29004KT 7SM OVC002 17/16 A3007 RMK AO2 SLP182
T01670156 $=

Extra information for KSMX:More info

Metar Taf Metar & Taf Last 4 Metars F.Rules Stats Wind Profile Meteogram Temp Stats Airport Information Weather charts Add Link Nearby VenuesMetar ALERT Operation Metar Decoded Social comments

AIRNAV info for KSMX